KFOT Airport Information

Runway Information
Runway 11 Length 4005 ft width 100 ft
Elevation 340 ft Threshold 0 ft Heading 127
Runway 29 Length 4005 ft Width 100 ft
Elevation 392 ft Threshold 0 ft Heading 307
Airport Frequencies
Type CNTR Name SEATTLE CN Frequency 124.85 MHZ
Type CTAF Name CTAF Frequency 122.9 MHZ
Type RDO Name OAKLAND RD Frequency 122.3 MHZ
Airport Navaids
Airport Weather Information & NOTAM
ADDS - METARS form results

(1124 UTC 23 January 2019)
Data provider http://aviationweather.gov/metar/data/
 
METAR text: KFOT 231115Z AUTO 14006KT 10SM OVC037 04/04 A3050 RMK AO1
Conditions at: KFOT (FORTUNA , CA, US) observed 1115 UTC 23 January 2019
Temperature: 4.0°C (39°F)
Dewpoint: 4.0°C (39°F) [RH = 100%]
Pressure (altimeter): 30.50 inches Hg (1032.9 mb)
Winds: from the SE (140 degrees) at 7 MPH (6 knots; 3.1 m/s)
Visibility: 10 or more miles (16+ km)
Ceiling: 3700 feet AGL
Clouds: overcast cloud deck at 3700 feet AGL
Weather: automated observation with no human augmentation;
there may or may not be significant weather present at this time

METAR text: KFOT 231055Z AUTO 15006KT 8SM OVC037 04/04 A3051 RMK AO1
Conditions at: KFOT (FORTUNA , CA, US) observed 1055 UTC 23 January 2019
Temperature: 4.0°C (39°F)
Dewpoint: 4.0°C (39°F) [RH = 100%]
Pressure (altimeter): 30.51 inches Hg (1033.3 mb)
Winds: from the SSE (150 degrees) at 7 MPH (6 knots; 3.1 m/s)
Visibility: 8 miles (13 km)
Ceiling: 3700 feet AGL
Clouds: overcast cloud deck at 3700 feet AGL
Weather: automated observation with no human augmentation;
there may or may not be significant weather present at this time

METAR text: KFOT 231035Z AUTO 14006KT 10SM OVC037 04/04 A3051 RMK AO1
Conditions at: KFOT (FORTUNA , CA, US) observed 1035 UTC 23 January 2019
Temperature: 4.0°C (39°F)
Dewpoint: 4.0°C (39°F) [RH = 100%]
Pressure (altimeter): 30.51 inches Hg (1033.3 mb)
Winds: from the SE (140 degrees) at 7 MPH (6 knots; 3.1 m/s)
Visibility: 10 or more miles (16+ km)
Ceiling: 3700 feet AGL
Clouds: overcast cloud deck at 3700 feet AGL
Weather: automated observation with no human augmentation;
there may or may not be significant weather present at this time